createdAt,value
2023-02-01T00:00:30.960Z,99137.25
2023-02-01T00:02:57.578Z,99136.19
2023-02-01T00:05:24.307Z,99132.81
2023-02-01T00:07:51.138Z,99128.50
2023-02-01T00:10:18.475Z,99129.28
2023-02-01T00:12:45.483Z,99123.03
2023-02-01T00:15:12.491Z,99118.66
2023-02-01T00:17:39.231Z,99119.66
2023-02-01T00:20:06.541Z,99106.53
2023-02-01T00:22:33.195Z,99107.31
2023-02-01T00:24:59.814Z,99105.56
2023-02-01T00:27:26.435Z,99101.19
2023-02-01T00:29:56.055Z,99089.75
2023-02-01T00:32:22.730Z,99075.75
2023-02-01T00:34:49.449Z,99095.88
2023-02-01T00:37:16.075Z,99091.53
2023-02-01T00:39:42.694Z,99095.00
2023-02-01T00:42:09.500Z,99083.75
2023-02-01T00:44:36.732Z,99088.09
2023-02-01T00:47:03.376Z,99096.88
2023-02-01T00:49:30.193Z,99089.88
2023-02-01T00:51:57.061Z,99090.72
2023-02-01T00:54:23.959Z,99091.53
2023-02-01T00:56:50.731Z,99103.06
2023-02-01T00:59:18.861Z,99097.78
2023-02-01T01:01:46.000Z,99086.44
2023-02-01T01:04:12.785Z,99088.16
2023-02-01T01:06:39.536Z,99084.63
2023-02-01T01:09:08.460Z,99080.25
2023-02-01T01:11:37.654Z,99081.06
2023-02-01T01:14:07.696Z,99074.16
2023-02-01T01:16:38.818Z,99071.53
2023-02-01T01:19:07.857Z,99062.78
2023-02-01T01:21:34.662Z,99079.44
2023-02-01T01:24:01.467Z,99081.19
2023-02-01T01:26:30.428Z,99080.34
2023-02-01T01:29:01.071Z,99088.09
2023-02-01T01:31:29.330Z,99079.47
2023-02-01T01:33:58.164Z,99092.66
2023-02-01T01:36:27.083Z,99082.06
2023-02-01T01:38:53.922Z,99094.22
2023-02-01T01:41:24.097Z,99092.63
2023-02-01T01:44:03.956Z,99103.16
2023-02-01T01:46:33.645Z,99101.44
2023-02-01T01:49:15.118Z,99105.78
2023-02-01T01:51:48.888Z,99110.16
2023-02-01T01:54:21.477Z,99105.81
2023-02-01T01:56:53.540Z,99107.44
2023-02-01T01:59:22.944Z,99094.38
2023-02-01T02:01:49.802Z,99101.25
2023-02-01T02:04:16.842Z,99110.09
2023-02-01T02:06:49.451Z,99097.94
2023-02-01T02:09:16.575Z,99105.84
2023-02-01T02:11:43.205Z,99098.00
2023-02-01T02:14:15.135Z,99095.25
2023-02-01T02:16:54.331Z,99086.50
2023-02-01T02:19:26.690Z,99093.63
2023-02-01T02:22:11.973Z,99079.47
2023-02-01T02:24:55.911Z,99087.38
2023-02-01T02:27:38.918Z,99068.97
2023-02-01T02:30:17.817Z,99071.69
2023-02-01T02:33:25.830Z,99071.63
2023-02-01T02:36:09.312Z,99075.16
2023-02-01T02:38:56.936Z,99069.84
2023-02-01T02:42:01.583Z,99063.78
2023-02-01T02:45:34.790Z,99070.69
2023-02-01T02:48:12.966Z,99054.97
2023-02-01T02:51:11.516Z,99053.28
2023-02-01T02:54:16.661Z,99036.56
2023-02-01T02:57:03.345Z,99032.19
2023-02-01T02:59:50.138Z,99041.88
2023-02-01T03:02:36.497Z,99037.47
2023-02-01T03:05:03.197Z,99038.38
2023-02-01T03:08:08.523Z,99030.44
2023-02-01T03:10:56.531Z,99023.44
2023-02-01T03:13:49.620Z,99027.78
2023-02-01T03:16:37.724Z,99032.22
2023-02-01T03:19:07.395Z,99033.97
2023-02-01T03:21:57.670Z,99040.13
2023-02-01T03:24:36.213Z,99032.25
2023-02-01T03:27:10.008Z,99027.84
2023-02-01T03:29:51.291Z,99021.72
2023-02-01T03:32:18.474Z,99027.84
2023-02-01T03:34:46.982Z,99027.81
2023-02-01T03:37:22.262Z,99030.47
2023-02-01T03:40:01.810Z,99026.06
2023-02-01T03:42:37.903Z,99028.72
2023-02-01T03:45:14.362Z,99035.63
2023-02-01T03:47:45.946Z,99034.78
2023-02-01T03:50:19.311Z,99035.66
2023-02-01T03:52:52.190Z,99038.19
2023-02-01T03:55:21.985Z,99034.69
2023-02-01T03:58:10.525Z,99033.03
2023-02-01T04:00:37.382Z,99031.25
2023-02-01T04:03:05.975Z,99034.78
2023-02-01T04:05:32.973Z,99037.44
2023-02-01T04:08:03.393Z,99027.78
2023-02-01T04:10:30.108Z,99034.84
2023-02-01T04:12:56.734Z,99028.72
2023-02-01T04:15:23.352Z,99027.00
2023-02-01T04:17:49.935Z,99040.13
2023-02-01T04:20:16.861Z,99030.50
2023-02-01T04:22:44.485Z,99032.28
2023-02-01T04:25:11.544Z,99036.63
2023-02-01T04:30:05.905Z,99042.81
2023-02-01T04:32:32.549Z,99034.91
2023-02-01T04:34:59.287Z,99038.38
2023-02-01T04:37:25.919Z,99048.06
2023-02-01T04:39:52.633Z,99031.38
2023-02-01T04:42:19.235Z,99031.41
2023-02-01T04:44:45.925Z,99049.78
2023-02-01T04:47:12.564Z,99042.78
2023-02-01T04:49:39.231Z,99037.47
2023-02-01T04:52:05.899Z,99038.41
2023-02-01T04:54:32.528Z,99044.53
2023-02-01T04:56:59.117Z,99041.91
2023-02-01T04:59:26.171Z,99044.53
2023-02-01T05:01:52.865Z,99047.19
2023-02-01T05:04:19.652Z,99050.69
2023-02-01T05:06:46.688Z,99048.94
2023-02-01T05:09:13.410Z,99048.91
2023-02-01T05:11:58.611Z,99047.19
2023-02-01T05:14:25.259Z,99058.56
2023-02-01T05:16:51.895Z,99047.19
2023-02-01T05:19:18.592Z,99052.44
2023-02-01T05:21:45.295Z,99046.31
2023-02-01T05:24:14.547Z,99037.56
2023-02-01T05:26:41.946Z,99033.16
2023-02-01T05:29:09.857Z,99034.03
2023-02-01T05:31:37.077Z,99041.91
2023-02-01T05:34:04.870Z,99042.78
2023-02-01T05:36:32.300Z,99033.13
2023-02-01T05:38:59.141Z,99041.03
2023-02-01T05:41:26.082Z,99043.66
2023-02-01T05:43:52.796Z,99048.94
2023-02-01T05:46:19.558Z,99054.19
2023-02-01T05:48:46.310Z,99055.94
2023-02-01T05:51:13.794Z,99064.75
2023-02-01T05:53:40.459Z,99064.72
2023-02-01T05:56:07.557Z,99063.91
2023-02-01T05:58:34.273Z,99063.84
2023-02-01T06:01:01.861Z,99071.78
2023-02-01T06:03:28.869Z,99069.13
2023-02-01T06:05:55.880Z,99069.97
2023-02-01T06:08:22.631Z,99072.63
2023-02-01T06:10:49.256Z,99067.34
2023-02-01T06:13:15.877Z,99072.59
2023-02-01T06:15:44.894Z,99085.75
2023-02-01T06:18:11.658Z,99095.38
2023-02-01T06:20:39.218Z,99085.72
2023-02-01T06:23:05.939Z,99081.38
2023-02-01T06:25:32.609Z,99078.75
2023-02-01T06:28:01.943Z,99085.78
2023-02-01T06:30:28.727Z,99091.88
2023-02-01T06:32:56.518Z,99097.16
2023-02-01T06:35:24.207Z,99102.41
2023-02-01T06:37:51.863Z,99096.28
2023-02-01T06:40:18.683Z,99090.22
2023-02-01T06:42:45.297Z,99086.66
2023-02-01T06:45:12.021Z,99083.13
2023-02-01T06:47:38.684Z,99082.25
2023-02-01T06:50:06.142Z,99087.50
2023-02-01T06:52:32.789Z,99086.59
2023-02-01T06:54:59.420Z,99093.56
2023-02-01T06:57:26.331Z,99101.50
2023-02-01T06:59:52.978Z,99101.47
2023-02-01T07:02:19.674Z,99092.69
2023-02-01T07:04:46.361Z,99089.25
2023-02-01T07:07:13.146Z,99090.97
2023-02-01T07:09:39.838Z,99095.38
2023-02-01T07:12:06.870Z,99104.03
2023-02-01T07:14:33.510Z,99111.16
2023-02-01T07:17:00.099Z,99132.19
2023-02-01T07:19:26.744Z,99135.66
2023-02-01T07:21:53.341Z,99142.63
2023-02-01T07:24:19.982Z,99133.03
2023-02-01T07:26:48.735Z,99133.06
2023-02-01T07:29:15.438Z,99132.13
2023-02-01T07:31:42.067Z,99132.19
2023-02-01T07:34:08.724Z,99135.66
2023-02-01T07:36:37.157Z,99127.81
2023-02-01T07:39:06.570Z,99126.91
2023-02-01T07:41:33.217Z,99134.81
2023-02-01T07:43:59.951Z,99129.53
2023-02-01T07:46:26.599Z,99126.94
2023-02-01T07:48:53.281Z,99127.72
2023-02-01T07:51:19.850Z,99124.25
2023-02-01T07:53:46.802Z,99128.66
2023-02-01T07:56:18.624Z,99128.72
2023-02-01T07:58:53.292Z,99137.47
2023-02-01T08:01:25.117Z,99124.41
2023-02-01T08:03:57.686Z,99134.06
2023-02-01T08:06:25.793Z,99141.06
2023-02-01T08:08:53.447Z,99148.09
2023-02-01T08:11:22.051Z,99156.88
2023-02-01T08:13:48.818Z,99163.91
2023-02-01T08:16:17.690Z,99162.16
2023-02-01T08:18:44.380Z,99170.91
2023-02-01T08:21:21.131Z,99177.06
2023-02-01T08:23:47.827Z,99179.69
2023-02-01T08:26:21.458Z,99177.03
2023-02-01T08:28:51.367Z,99181.44
2023-02-01T08:31:21.076Z,99191.09
2023-02-01T08:33:57.138Z,99187.63
2023-02-01T08:36:25.235Z,99176.19
2023-02-01T08:38:52.151Z,99167.38
2023-02-01T08:41:21.637Z,99165.66
2023-02-01T08:43:48.926Z,99168.28
2023-02-01T08:46:16.088Z,99170.03
2023-02-01T08:48:43.080Z,99167.41
2023-02-01T08:51:13.706Z,99163.88
2023-02-01T08:53:42.260Z,99155.88
2023-02-01T08:56:11.517Z,99161.06
2023-02-01T08:58:38.329Z,99162.78
2023-02-01T09:01:06.758Z,99153.91
2023-02-01T09:03:33.640Z,99153.97
2023-02-01T09:06:02.126Z,99152.25
2023-02-01T09:08:29.111Z,99146.88
2023-02-01T09:11:06.331Z,99144.88
2023-02-01T09:13:34.571Z,99143.25
2023-02-01T09:16:01.314Z,99138.72
2023-02-01T09:18:28.092Z,99143.19
2023-02-01T09:20:54.817Z,99153.13
2023-02-01T09:23:21.510Z,99154.06
2023-02-01T09:25:51.145Z,99165.56
2023-02-01T09:28:18.888Z,99177.00
2023-02-01T09:30:46.131Z,99180.44
2023-02-01T09:33:13.063Z,99192.81
2023-02-01T09:35:39.834Z,99194.53
2023-02-01T09:38:06.493Z,99191.94
2023-02-01T09:40:35.563Z,99206.03
2023-02-01T09:43:17.654Z,99211.31
2023-02-01T09:45:51.621Z,99220.97
2023-02-01T09:48:31.830Z,99217.44
2023-02-01T09:51:00.528Z,99220.97
2023-02-01T09:53:43.883Z,99213.03
2023-02-01T09:56:18.879Z,99203.41
2023-02-01T09:58:52.981Z,99206.00
2023-02-01T10:01:23.345Z,99207.69
2023-02-01T10:03:52.708Z,99213.00
2023-02-01T10:06:45.615Z,99219.06
2023-02-01T10:09:18.078Z,99217.34
2023-02-01T10:12:03.613Z,99238.50
2023-02-01T10:14:56.587Z,99236.75
2023-02-01T10:17:45.493Z,99240.28
2023-02-01T10:20:47.683Z,99242.94
2023-02-01T10:23:35.355Z,99237.66
2023-02-01T10:26:09.126Z,99241.16
2023-02-01T10:28:38.928Z,99241.16
2023-02-01T10:31:09.203Z,99232.38
2023-02-01T10:33:45.482Z,99225.34
2023-02-01T10:36:31.140Z,99228.88
2023-02-01T10:39:00.569Z,99220.94
2023-02-01T10:41:38.481Z,99227.09
2023-02-01T10:44:11.327Z,99223.59
2023-02-01T10:46:38.343Z,99210.44
2023-02-01T10:49:07.554Z,99207.78
2023-02-01T10:51:47.749Z,99212.19
2023-02-01T10:54:22.484Z,99208.66
2023-02-01T10:56:50.798Z,99203.41
2023-02-01T10:59:25.777Z,99196.34
2023-02-01T11:02:01.116Z,99188.47
2023-02-01T11:04:33.128Z,99181.47
2023-02-01T11:07:14.926Z,99174.38
2023-02-01T11:09:42.530Z,99174.38
2023-02-01T11:12:35.988Z,99178.78
2023-02-01T11:15:23.084Z,99169.13
2023-02-01T11:17:57.205Z,99173.56
2023-02-01T11:20:32.941Z,99184.06
2023-02-01T11:23:00.539Z,99177.03
2023-02-01T11:25:27.509Z,99176.16
2023-02-01T11:27:56.713Z,99175.31
2023-02-01T11:30:37.822Z,99177.94
2023-02-01T11:33:06.983Z,99183.19
2023-02-01T11:35:39.563Z,99174.34
2023-02-01T11:38:32.112Z,99156.63
2023-02-01T11:41:14.167Z,99157.88
2023-02-01T11:44:00.612Z,99160.34
2023-02-01T11:46:35.491Z,99165.91
2023-02-01T11:49:22.279Z,99169.69
2023-02-01T11:52:09.600Z,99168.13
2023-02-01T11:55:02.493Z,99170.66
2023-02-01T11:57:50.045Z,99180.53
2023-02-01T12:00:41.607Z,99172.56
2023-02-01T12:03:27.149Z,99182.28
2023-02-01T12:06:09.456Z,99180.53
2023-02-01T12:08:46.004Z,99184.06
2023-02-01T12:11:13.230Z,99177.94
2023-02-01T12:14:05.998Z,99171.78
2023-02-01T12:16:59.650Z,99176.16
2023-02-01T12:19:59.697Z,99178.81
2023-02-01T12:23:03.677Z,99170.88
2023-02-01T12:25:55.994Z,99172.66
2023-02-01T12:28:39.691Z,99159.44
2023-02-01T12:31:15.828Z,99157.69
2023-02-01T12:34:13.582Z,99152.28
2023-02-01T12:36:54.888Z,99153.06
2023-02-01T12:39:24.161Z,99155.78
2023-02-01T12:42:04.120Z,99145.28
2023-02-01T12:45:01.110Z,99151.47
2023-02-01T12:47:36.326Z,99142.53
2023-02-01T12:50:19.898Z,99135.44
2023-02-01T12:52:55.415Z,99122.06
2023-02-01T12:55:25.185Z,99126.75
2023-02-01T12:58:17.655Z,99112.47
2023-02-01T13:00:48.311Z,99115.25
2023-02-01T13:03:42.569Z,99113.59
2023-02-01T13:06:09.354Z,99106.44
2023-02-01T13:08:53.600Z,99113.59
2023-02-01T13:11:30.924Z,99102.16
2023-02-01T13:14:13.205Z,99099.47
2023-02-01T13:16:48.482Z,99089.00
2023-02-01T13:19:21.270Z,99088.06
2023-02-01T13:21:51.939Z,99082.97
2023-02-01T13:24:32.579Z,99082.13
2023-02-01T13:26:59.408Z,99082.91
2023-02-01T13:29:29.299Z,99082.09
2023-02-01T13:32:19.572Z,99090.81
2023-02-01T13:35:04.577Z,99090.88
2023-02-01T13:37:37.180Z,99090.84
2023-02-01T13:40:32.503Z,99085.69
2023-02-01T13:43:09.183Z,99086.53
2023-02-01T13:45:43.399Z,99084.72
2023-02-01T13:48:23.964Z,99076.88
2023-02-01T13:50:57.423Z,99088.25
2023-02-01T13:53:40.493Z,99088.22
2023-02-01T13:56:16.082Z,99075.84
2023-02-01T13:58:44.937Z,99084.72
2023-02-01T14:01:24.037Z,99081.25
2023-02-01T14:03:53.315Z,99083.03
2023-02-01T14:06:29.161Z,99088.31
2023-02-01T14:09:13.374Z,99077.75
2023-02-01T14:11:51.506Z,99082.16
2023-02-01T14:14:18.125Z,99087.41
2023-02-01T14:17:10.308Z,99078.59
2023-02-01T14:19:37.971Z,99082.84
2023-02-01T14:22:34.913Z,99081.03
2023-02-01T14:25:01.635Z,99077.38
2023-02-01T14:27:35.979Z,99081.78
2023-02-01T14:30:08.096Z,99084.56
2023-02-01T14:32:39.332Z,99078.34
2023-02-01T14:35:29.533Z,99086.28
2023-02-01T14:38:03.556Z,99082.81
2023-02-01T14:40:31.853Z,99090.75
2023-02-01T14:42:58.492Z,99086.44
2023-02-01T14:45:45.990Z,99093.53
2023-02-01T14:48:12.747Z,99096.13
2023-02-01T14:50:41.888Z,99094.34
2023-02-01T14:53:11.728Z,99096.06
2023-02-01T14:56:05.182Z,99097.91
2023-02-01T14:58:53.399Z,99094.47
2023-02-01T15:01:29.818Z,99092.59
2023-02-01T15:03:59.872Z,99090.91
2023-02-01T15:06:34.666Z,99090.91
2023-02-01T15:09:10.957Z,99088.25
2023-02-01T15:11:58.481Z,99089.03
2023-02-01T15:14:26.664Z,99080.28
2023-02-01T15:16:56.204Z,99092.69
2023-02-01T15:19:25.169Z,99089.94
2023-02-01T15:21:54.744Z,99097.81
2023-02-01T15:24:25.806Z,99093.44
2023-02-01T15:26:54.282Z,99094.34
2023-02-01T15:29:23.139Z,99089.81
2023-02-01T15:31:52.499Z,99094.22
2023-02-01T15:34:20.714Z,99092.44
2023-02-01T15:37:01.974Z,99093.44
2023-02-01T15:39:31.726Z,99089.09
2023-02-01T15:42:25.159Z,99096.09
2023-02-01T15:44:51.820Z,99088.19
2023-02-01T15:47:26.924Z,99089.03
2023-02-01T15:49:56.710Z,99077.72
2023-02-01T15:52:40.303Z,99082.16
2023-02-01T15:55:18.620Z,99077.72
2023-02-01T15:57:45.891Z,99076.78
2023-02-01T16:00:26.327Z,99066.28
2023-02-01T16:02:58.932Z,99072.53
2023-02-01T16:05:44.552Z,99078.72
2023-02-01T16:08:16.032Z,99085.72
2023-02-01T16:10:46.472Z,99083.97
2023-02-01T16:13:14.362Z,99091.91
2023-02-01T16:15:41.266Z,99088.38
2023-02-01T16:18:09.132Z,99099.78
2023-02-01T16:20:37.158Z,99098.91
2023-02-01T16:23:04.366Z,99093.66
2023-02-01T16:25:31.350Z,99098.06
2023-02-01T16:27:58.152Z,99105.06
2023-02-01T16:30:25.399Z,99106.84
2023-02-01T16:32:58.608Z,99115.63
2023-02-01T16:35:36.197Z,99120.03
2023-02-01T16:38:13.832Z,99125.28
2023-02-01T16:40:42.154Z,99127.06
2023-02-01T16:43:20.790Z,99133.19
2023-02-01T16:45:49.595Z,99131.41
2023-02-01T16:48:22.825Z,99133.19
2023-02-01T16:50:54.841Z,99125.28
2023-02-01T16:53:23.164Z,99132.31
2023-02-01T16:55:50.452Z,99132.31
2023-02-01T16:58:17.819Z,99128.78
2023-02-01T17:00:44.990Z,99134.94
2023-02-01T17:03:17.294Z,99141.09
2023-02-01T17:05:47.660Z,99139.22
2023-02-01T17:08:20.093Z,99143.69
2023-02-01T17:10:46.992Z,99140.22
2023-02-01T17:13:15.861Z,99135.81
2023-02-01T17:15:50.178Z,99147.22
2023-02-01T17:18:19.139Z,99142.84
2023-02-01T17:20:48.114Z,99134.06
2023-02-01T17:23:18.043Z,99134.06
2023-02-01T17:25:44.959Z,99128.78
2023-02-01T17:28:11.614Z,99131.44
2023-02-01T17:30:39.908Z,99129.69
2023-02-01T17:33:35.954Z,99127.03
2023-02-01T17:36:05.969Z,99126.19
2023-02-01T17:38:34.524Z,99127.03
2023-02-01T17:41:01.449Z,99136.69
2023-02-01T17:43:28.336Z,99128.78
2023-02-01T17:46:06.702Z,99133.13
2023-02-01T17:48:33.445Z,99144.56
2023-02-01T17:51:00.890Z,99135.81
2023-02-01T17:53:29.119Z,99135.81
2023-02-01T17:55:59.704Z,99140.19
2023-02-01T17:58:26.642Z,99141.97
2023-02-01T18:00:54.288Z,99131.44
2023-02-01T18:03:26.996Z,99141.06
2023-02-01T18:05:56.088Z,99132.25
2023-02-01T18:08:25.135Z,99139.31
2023-02-01T18:10:54.870Z,99132.25
2023-02-01T18:13:22.447Z,99143.69
2023-02-01T18:15:49.134Z,99145.47
2023-02-01T18:18:15.847Z,99137.56
2023-02-01T18:20:44.388Z,99142.81
2023-02-01T18:23:16.985Z,99146.25
2023-02-01T18:25:44.023Z,99156.72
2023-02-01T18:28:10.646Z,99159.44
2023-02-01T18:30:37.445Z,99159.38
2023-02-01T18:33:05.377Z,99164.66
2023-02-01T18:35:32.756Z,99174.31
2023-02-01T18:37:59.486Z,99167.31
2023-02-01T18:40:30.028Z,99164.69
2023-02-01T18:42:58.112Z,99160.31
2023-02-01T18:45:25.094Z,99165.53
2023-02-01T18:47:52.519Z,99162.06
2023-02-01T18:50:19.673Z,99165.63
2023-02-01T18:52:47.267Z,99169.16
2023-02-01T18:55:14.299Z,99167.34
2023-02-01T18:57:41.148Z,99161.19
2023-02-01T19:00:10.741Z,99170.88
2023-02-01T19:02:39.123Z,99165.66
2023-02-01T19:05:08.118Z,99164.75
2023-02-01T19:07:39.579Z,99163.00
2023-02-01T19:10:09.022Z,99157.75
2023-02-01T19:12:36.760Z,99156.88
2023-02-01T19:15:04.210Z,99156.84
2023-02-01T19:17:31.074Z,99158.63
2023-02-01T19:20:00.636Z,99161.25
2023-02-01T19:22:27.699Z,99146.34
2023-02-01T19:24:54.741Z,99159.50
2023-02-01T19:27:21.762Z,99167.41
2023-02-01T19:29:48.746Z,99165.63
2023-02-01T19:32:15.437Z,99166.50
2023-02-01T19:34:42.175Z,99164.78
2023-02-01T19:37:10.138Z,99170.88
2023-02-01T19:39:37.841Z,99165.66
2023-02-01T19:42:05.423Z,99159.53
2023-02-01T19:44:32.736Z,99173.53
2023-02-01T19:46:59.382Z,99177.94
2023-02-01T19:49:26.545Z,99182.31
2023-02-01T19:51:53.211Z,99179.72
2023-02-01T19:54:20.766Z,99180.56
2023-02-01T19:56:51.029Z,99179.69
2023-02-01T19:59:18.999Z,99177.94
2023-02-01T20:01:46.628Z,99177.06
2023-02-01T20:04:15.397Z,99182.34
2023-02-01T20:06:48.761Z,99182.31
2023-02-01T20:09:17.134Z,99185.84
2023-02-01T20:11:43.892Z,99191.06
2023-02-01T20:14:11.415Z,99184.09
2023-02-01T20:16:39.189Z,99189.34
2023-02-01T20:19:06.331Z,99182.31
2023-02-01T20:21:33.159Z,99176.19
2023-02-01T20:23:59.827Z,99177.94
2023-02-01T20:26:27.972Z,99173.56
2023-02-01T20:28:55.671Z,99166.50
2023-02-01T20:31:24.969Z,99166.50
2023-02-01T20:33:52.727Z,99162.16
2023-02-01T20:36:19.406Z,99166.53
2023-02-01T20:38:46.299Z,99166.50
2023-02-01T20:41:12.908Z,99172.63
2023-02-01T20:43:39.558Z,99171.75
2023-02-01T20:46:06.402Z,99173.50
2023-02-01T20:48:33.196Z,99166.53
2023-02-01T20:51:00.435Z,99167.38
2023-02-01T20:53:27.304Z,99170.00
2023-02-01T20:55:56.295Z,99167.41
2023-02-01T20:58:23.328Z,99169.94
2023-02-01T21:00:50.694Z,99169.09
2023-02-01T21:03:17.629Z,99156.72
2023-02-01T21:05:54.404Z,99163.72
2023-02-01T21:08:21.608Z,99163.72
2023-02-01T21:11:03.172Z,99173.41
2023-02-01T21:13:31.773Z,99169.06
2023-02-01T21:15:58.895Z,99170.81
2023-02-01T21:18:25.709Z,99163.75
2023-02-01T21:20:52.383Z,99160.22
2023-02-01T21:23:19.035Z,99172.50
2023-02-01T21:25:46.080Z,99147.06
2023-02-01T21:28:13.652Z,99149.72
2023-02-01T21:30:41.078Z,99152.41
2023-02-01T21:33:07.939Z,99157.72
2023-02-01T21:35:34.564Z,99162.94
2023-02-01T21:38:01.276Z,99165.53
2023-02-01T21:40:27.926Z,99162.13
2023-02-01T21:42:54.624Z,99160.38
2023-02-01T21:45:21.359Z,99159.50
2023-02-01T21:47:49.614Z,99158.56
2023-02-01T21:50:18.792Z,99154.16
2023-02-01T21:52:46.036Z,99158.50
2023-02-01T21:55:13.663Z,99155.09
2023-02-01T21:57:40.807Z,99157.69
2023-02-01T22:00:13.341Z,99154.22
2023-02-01T22:02:40.106Z,99161.25
2023-02-01T22:05:07.347Z,99152.50
2023-02-01T22:07:36.005Z,99151.59
2023-02-01T22:10:03.210Z,99155.09
2023-02-01T22:12:29.896Z,99159.50
2023-02-01T22:14:56.694Z,99160.38
2023-02-01T22:17:23.440Z,99164.75
2023-02-01T22:19:50.076Z,99169.16
2023-02-01T22:22:16.807Z,99176.16
2023-02-01T22:24:43.502Z,99176.13
2023-02-01T22:27:14.398Z,99174.44
2023-02-01T22:29:42.775Z,99170.91
2023-02-01T22:32:09.780Z,99168.16
2023-02-01T22:34:36.397Z,99165.66
2023-02-01T22:37:03.138Z,99176.19
2023-02-01T22:39:29.975Z,99173.44
2023-02-01T22:41:56.610Z,99175.28
2023-02-01T22:44:23.698Z,99185.84
2023-02-01T22:46:50.740Z,99184.94
2023-02-01T22:49:17.580Z,99186.69
2023-02-01T22:51:44.369Z,99189.31
2023-02-01T22:54:17.619Z,99185.72
2023-02-01T22:56:44.351Z,99197.22
2023-02-01T22:59:13.790Z,99196.34
2023-02-01T23:01:41.397Z,99209.50
2023-02-01T23:04:12.798Z,99199.88
2023-02-01T23:06:39.873Z,99208.66
2023-02-01T23:09:18.797Z,99203.41
2023-02-01T23:11:45.868Z,99207.75
2023-02-01T23:14:14.464Z,99206.91
2023-02-01T23:16:43.403Z,99201.63
2023-02-01T23:19:10.070Z,99203.34
2023-02-01T23:21:37.082Z,99201.63
2023-02-01T23:24:07.215Z,99202.50
2023-02-01T23:26:34.988Z,99194.59
2023-02-01T23:29:03.008Z,99184.94
2023-02-01T23:31:31.654Z,99198.13
2023-02-01T23:33:59.826Z,99190.22
2023-02-01T23:36:28.244Z,99195.50
2023-02-01T23:38:55.720Z,99196.38
2023-02-01T23:41:23.861Z,99196.34
2023-02-01T23:44:00.568Z,99201.66
2023-02-01T23:46:47.202Z,99199.88
2023-02-01T23:49:15.983Z,99198.13
2023-02-01T23:51:43.244Z,99196.34
2023-02-01T23:54:11.628Z,99188.44
2023-02-01T23:56:43.817Z,99182.31
2023-02-01T23:59:20.326Z,99182.28
